sensor_id;sensor_type;location;lat;lon;timestamp;P1;durP1;ratioP1;P2;durP2;ratioP2
15643;SDS011;7921;43.586;1.408;2024-01-25T00:01:58;14.13;;;12.90;;
15643;SDS011;7921;43.586;1.408;2024-01-25T00:04:23;16.37;;;14.87;;
15643;SDS011;7921;43.586;1.408;2024-01-25T00:06:48;16.53;;;15.10;;
15643;SDS011;7921;43.586;1.408;2024-01-25T00:09:14;17.37;;;15.87;;
15643;SDS011;7921;43.586;1.408;2024-01-25T00:11:39;17.80;;;16.20;;
15643;SDS011;7921;43.586;1.408;2024-01-25T00:14:04;17.67;;;16.17;;
15643;SDS011;7921;43.586;1.408;2024-01-25T00:16:30;17.63;;;15.93;;
15643;SDS011;7921;43.586;1.408;2024-01-25T00:18:55;17.33;;;15.67;;
15643;SDS011;7921;43.586;1.408;2024-01-25T00:21:20;16.33;;;14.83;;
15643;SDS011;7921;43.586;1.408;2024-01-25T00:23:46;16.53;;;15.13;;
15643;SDS011;7921;43.586;1.408;2024-01-25T00:26:12;16.37;;;14.97;;
15643;SDS011;7921;43.586;1.408;2024-01-25T00:28:38;17.50;;;15.93;;
15643;SDS011;7921;43.586;1.408;2024-01-25T00:31:03;18.23;;;16.53;;
15643;SDS011;7921;43.586;1.408;2024-01-25T00:33:29;17.27;;;15.77;;
15643;SDS011;7921;43.586;1.408;2024-01-25T00:35:54;19.20;;;17.60;;
15643;SDS011;7921;43.586;1.408;2024-01-25T00:38:20;18.93;;;17.33;;
15643;SDS011;7921;43.586;1.408;2024-01-25T00:40:45;18.10;;;16.50;;
15643;SDS011;7921;43.586;1.408;2024-01-25T00:43:11;16.87;;;15.47;;
15643;SDS011;7921;43.586;1.408;2024-01-25T00:45:37;15.97;;;14.57;;
15643;SDS011;7921;43.586;1.408;2024-01-25T00:48:03;16.70;;;15.20;;
15643;SDS011;7921;43.586;1.408;2024-01-25T00:50:28;15.13;;;13.73;;
15643;SDS011;7921;43.586;1.408;2024-01-25T00:52:54;14.47;;;13.20;;
15643;SDS011;7921;43.586;1.408;2024-01-25T00:55:20;13.93;;;12.60;;
15643;SDS011;7921;43.586;1.408;2024-01-25T00:57:45;13.57;;;12.33;;
15643;SDS011;7921;43.586;1.408;2024-01-25T01:00:11;13.20;;;12.07;;
15643;SDS011;7921;43.586;1.408;2024-01-25T01:02:42;13.43;;;12.23;;
15643;SDS011;7921;43.586;1.408;2024-01-25T01:05:08;13.67;;;12.47;;
15643;SDS011;7921;43.586;1.408;2024-01-25T01:07:34;12.30;;;11.20;;
15643;SDS011;7921;43.586;1.408;2024-01-25T01:10:00;12.13;;;11.03;;
15643;SDS011;7921;43.586;1.408;2024-01-25T01:12:25;12.23;;;11.10;;
15643;SDS011;7921;43.586;1.408;2024-01-25T01:14:51;11.03;;;10.03;;
15643;SDS011;7921;43.586;1.408;2024-01-25T01:17:16;12.27;;;11.07;;
15643;SDS011;7921;43.586;1.408;2024-01-25T01:19:43;10.83;;;9.83;;
15643;SDS011;7921;43.586;1.408;2024-01-25T01:22:08;10.90;;;9.80;;
15643;SDS011;7921;43.586;1.408;2024-01-25T01:24:33;11.87;;;10.67;;
15643;SDS011;7921;43.586;1.408;2024-01-25T01:26:59;11.10;;;10.10;;
15643;SDS011;7921;43.586;1.408;2024-01-25T01:29:24;12.37;;;11.17;;
15643;SDS011;7921;43.586;1.408;2024-01-25T01:31:50;10.13;;;9.13;;
15643;SDS011;7921;43.586;1.408;2024-01-25T01:34:15;10.90;;;9.90;;
15643;SDS011;7921;43.586;1.408;2024-01-25T01:36:42;10.90;;;9.93;;
15643;SDS011;7921;43.586;1.408;2024-01-25T01:39:08;10.30;;;9.40;;
15643;SDS011;7921;43.586;1.408;2024-01-25T01:41:33;10.77;;;9.63;;
15643;SDS011;7921;43.586;1.408;2024-01-25T01:43:59;9.63;;;8.70;;
15643;SDS011;7921;43.586;1.408;2024-01-25T01:46:34;9.70;;;8.80;;
15643;SDS011;7921;43.586;1.408;2024-01-25T01:49:03;10.33;;;9.37;;
15643;SDS011;7921;43.586;1.408;2024-01-25T01:51:29;9.50;;;8.70;;
15643;SDS011;7921;43.586;1.408;2024-01-25T01:53:56;9.70;;;8.67;;
15643;SDS011;7921;43.586;1.408;2024-01-25T01:56:22;9.27;;;8.47;;
15643;SDS011;7921;43.586;1.408;2024-01-25T01:58:49;8.80;;;8.00;;
15643;SDS011;7921;43.586;1.408;2024-01-25T02:01:14;9.27;;;8.10;;
15643;SDS011;7921;43.586;1.408;2024-01-25T02:03:40;8.50;;;7.73;;
15643;SDS011;7921;43.586;1.408;2024-01-25T02:06:06;8.90;;;8.10;;
15643;SDS011;7921;43.586;1.408;2024-01-25T02:08:31;9.13;;;8.23;;
15643;SDS011;7921;43.586;1.408;2024-01-25T02:10:57;10.33;;;8.73;;
15643;SDS011;7921;43.586;1.408;2024-01-25T02:13:22;10.57;;;8.63;;
15643;SDS011;7921;43.586;1.408;2024-01-25T02:15:48;7.47;;;6.73;;
15643;SDS011;7921;43.586;1.408;2024-01-25T02:18:13;7.37;;;6.63;;
15643;SDS011;7921;43.586;1.408;2024-01-25T02:20:39;8.00;;;7.20;;
15643;SDS011;7921;43.586;1.408;2024-01-25T02:23:05;8.13;;;7.17;;
15643;SDS011;7921;43.586;1.408;2024-01-25T02:25:30;7.80;;;6.87;;
15643;SDS011;7921;43.586;1.408;2024-01-25T02:27:56;7.87;;;7.03;;
15643;SDS011;7921;43.586;1.408;2024-01-25T02:30:21;10.13;;;7.57;;
15643;SDS011;7921;43.586;1.408;2024-01-25T02:32:46;8.70;;;7.20;;
15643;SDS011;7921;43.586;1.408;2024-01-25T02:35:12;10.03;;;7.30;;
15643;SDS011;7921;43.586;1.408;2024-01-25T02:37:37;8.30;;;7.50;;
15643;SDS011;7921;43.586;1.408;2024-01-25T02:40:03;8.77;;;7.80;;
15643;SDS011;7921;43.586;1.408;2024-01-25T02:42:29;7.67;;;6.97;;
15643;SDS011;7921;43.586;1.408;2024-01-25T02:44:55;11.87;;;7.27;;
15643;SDS011;7921;43.586;1.408;2024-01-25T02:47:20;8.37;;;7.47;;
15643;SDS011;7921;43.586;1.408;2024-01-25T02:49:45;7.70;;;7.00;;
15643;SDS011;7921;43.586;1.408;2024-01-25T02:52:11;8.70;;;7.17;;
15643;SDS011;7921;43.586;1.408;2024-01-25T02:54:36;11.50;;;8.03;;
15643;SDS011;7921;43.586;1.408;2024-01-25T02:57:02;9.57;;;8.67;;
15643;SDS011;7921;43.586;1.408;2024-01-25T02:59:27;9.60;;;8.60;;
15643;SDS011;7921;43.586;1.408;2024-01-25T03:01:53;9.97;;;8.83;;
15643;SDS011;7921;43.586;1.408;2024-01-25T03:04:19;9.70;;;8.67;;
15643;SDS011;7921;43.586;1.408;2024-01-25T03:06:44;12.07;;;8.50;;
15643;SDS011;7921;43.586;1.408;2024-01-25T03:09:10;10.80;;;8.70;;
15643;SDS011;7921;43.586;1.408;2024-01-25T03:11:35;12.30;;;8.13;;
15643;SDS011;7921;43.586;1.408;2024-01-25T03:14:00;8.80;;;7.70;;
15643;SDS011;7921;43.586;1.408;2024-01-25T03:16:26;9.27;;;8.37;;
15643;SDS011;7921;43.586;1.408;2024-01-25T03:18:51;8.70;;;7.37;;
15643;SDS011;7921;43.586;1.408;2024-01-25T03:21:17;7.80;;;7.00;;
15643;SDS011;7921;43.586;1.408;2024-01-25T03:23:42;8.27;;;6.50;;
15643;SDS011;7921;43.586;1.408;2024-01-25T03:26:08;8.17;;;7.43;;
15643;SDS011;7921;43.586;1.408;2024-01-25T03:28:36;7.83;;;7.03;;
15643;SDS011;7921;43.586;1.408;2024-01-25T03:31:02;8.30;;;7.00;;
15643;SDS011;7921;43.586;1.408;2024-01-25T03:33:27;7.80;;;7.03;;
15643;SDS011;7921;43.586;1.408;2024-01-25T03:35:53;7.20;;;6.50;;
15643;SDS011;7921;43.586;1.408;2024-01-25T03:38:19;9.30;;;7.10;;
15643;SDS011;7921;43.586;1.408;2024-01-25T03:40:45;8.07;;;7.27;;
15643;SDS011;7921;43.586;1.408;2024-01-25T03:43:11;8.53;;;7.73;;
15643;SDS011;7921;43.586;1.408;2024-01-25T03:45:36;8.60;;;7.80;;
15643;SDS011;7921;43.586;1.408;2024-01-25T03:48:02;8.00;;;7.07;;
15643;SDS011;7921;43.586;1.408;2024-01-25T03:50:27;8.00;;;6.80;;
15643;SDS011;7921;43.586;1.408;2024-01-25T03:52:53;8.43;;;7.20;;
15643;SDS011;7921;43.586;1.408;2024-01-25T03:55:18;8.27;;;6.40;;
15643;SDS011;7921;43.586;1.408;2024-01-25T03:57:44;6.93;;;6.33;;
15643;SDS011;7921;43.586;1.408;2024-01-25T04:00:10;7.67;;;6.87;;
15643;SDS011;7921;43.586;1.408;2024-01-25T04:02:36;8.70;;;7.23;;
15643;SDS011;7921;43.586;1.408;2024-01-25T04:05:01;8.27;;;7.03;;
15643;SDS011;7921;43.586;1.408;2024-01-25T04:07:27;8.50;;;7.60;;
15643;SDS011;7921;43.586;1.408;2024-01-25T04:09:52;9.63;;;8.07;;
15643;SDS011;7921;43.586;1.408;2024-01-25T04:12:18;9.80;;;7.33;;
15643;SDS011;7921;43.586;1.408;2024-01-25T04:14:43;8.63;;;7.73;;
15643;SDS011;7921;43.586;1.408;2024-01-25T04:17:09;8.73;;;7.83;;
15643;SDS011;7921;43.586;1.408;2024-01-25T04:19:35;8.50;;;7.70;;
15643;SDS011;7921;43.586;1.408;2024-01-25T04:22:00;11.03;;;7.40;;
15643;SDS011;7921;43.586;1.408;2024-01-25T04:24:26;10.17;;;7.93;;
15643;SDS011;7921;43.586;1.408;2024-01-25T04:26:51;8.60;;;7.80;;
15643;SDS011;7921;43.586;1.408;2024-01-25T04:29:17;8.57;;;7.70;;
15643;SDS011;7921;43.586;1.408;2024-01-25T04:31:45;9.00;;;8.03;;
15643;SDS011;7921;43.586;1.408;2024-01-25T04:34:14;9.07;;;7.63;;
15643;SDS011;7921;43.586;1.408;2024-01-25T04:36:40;7.93;;;7.23;;
15643;SDS011;7921;43.586;1.408;2024-01-25T04:39:05;8.47;;;7.60;;
15643;SDS011;7921;43.586;1.408;2024-01-25T04:41:31;7.87;;;7.13;;
15643;SDS011;7921;43.586;1.408;2024-01-25T04:43:56;7.73;;;6.93;;
15643;SDS011;7921;43.586;1.408;2024-01-25T04:46:21;9.13;;;6.77;;
15643;SDS011;7921;43.586;1.408;2024-01-25T04:48:47;7.87;;;7.00;;
15643;SDS011;7921;43.586;1.408;2024-01-25T04:51:18;8.03;;;6.87;;
15643;SDS011;7921;43.586;1.408;2024-01-25T04:53:47;8.50;;;7.37;;
15643;SDS011;7921;43.586;1.408;2024-01-25T04:56:12;8.23;;;7.30;;
15643;SDS011;7921;43.586;1.408;2024-01-25T04:58:38;8.10;;;7.30;;
15643;SDS011;7921;43.586;1.408;2024-01-25T05:01:03;9.13;;;7.03;;
15643;SDS011;7921;43.586;1.408;2024-01-25T05:03:29;8.23;;;7.43;;
15643;SDS011;7921;43.586;1.408;2024-01-25T05:05:54;8.07;;;7.27;;
15643;SDS011;7921;43.586;1.408;2024-01-25T05:08:19;7.73;;;6.97;;
15643;SDS011;7921;43.586;1.408;2024-01-25T05:10:45;8.40;;;7.57;;
15643;SDS011;7921;43.586;1.408;2024-01-25T05:13:10;8.00;;;7.07;;
15643;SDS011;7921;43.586;1.408;2024-01-25T05:15:36;8.90;;;7.23;;
15643;SDS011;7921;43.586;1.408;2024-01-25T05:18:02;8.60;;;7.70;;
15643;SDS011;7921;43.586;1.408;2024-01-25T05:20:28;7.93;;;7.17;;
15643;SDS011;7921;43.586;1.408;2024-01-25T05:23:01;8.43;;;7.60;;
15643;SDS011;7921;43.586;1.408;2024-01-25T05:25:27;10.13;;;8.07;;
15643;SDS011;7921;43.586;1.408;2024-01-25T05:27:53;7.97;;;6.93;;
15643;SDS011;7921;43.586;1.408;2024-01-25T05:30:20;9.40;;;8.50;;
15643;SDS011;7921;43.586;1.408;2024-01-25T05:32:45;9.87;;;8.90;;
15643;SDS011;7921;43.586;1.408;2024-01-25T05:35:13;9.77;;;8.20;;
15643;SDS011;7921;43.586;1.408;2024-01-25T05:37:39;8.57;;;7.77;;
15643;SDS011;7921;43.586;1.408;2024-01-25T05:40:04;9.07;;;8.17;;
15643;SDS011;7921;43.586;1.408;2024-01-25T05:42:30;8.13;;;6.90;;
15643;SDS011;7921;43.586;1.408;2024-01-25T05:44:55;9.20;;;8.30;;
15643;SDS011;7921;43.586;1.408;2024-01-25T05:47:21;8.77;;;7.97;;
15643;SDS011;7921;43.586;1.408;2024-01-25T05:49:46;9.10;;;7.77;;
15643;SDS011;7921;43.586;1.408;2024-01-25T05:52:12;9.23;;;8.33;;
15643;SDS011;7921;43.586;1.408;2024-01-25T05:54:37;10.50;;;8.10;;
15643;SDS011;7921;43.586;1.408;2024-01-25T05:57:03;9.10;;;8.20;;
15643;SDS011;7921;43.586;1.408;2024-01-25T05:59:29;9.13;;;8.23;;
15643;SDS011;7921;43.586;1.408;2024-01-25T06:01:54;8.87;;;7.97;;
15643;SDS011;7921;43.586;1.408;2024-01-25T06:04:20;9.50;;;8.50;;
15643;SDS011;7921;43.586;1.408;2024-01-25T06:06:45;9.30;;;8.40;;
15643;SDS011;7921;43.586;1.408;2024-01-25T06:09:10;8.90;;;8.07;;
15643;SDS011;7921;43.586;1.408;2024-01-25T06:11:36;9.60;;;8.50;;
15643;SDS011;7921;43.586;1.408;2024-01-25T06:14:02;10.43;;;8.90;;
15643;SDS011;7921;43.586;1.408;2024-01-25T06:16:30;9.77;;;8.10;;
15643;SDS011;7921;43.586;1.408;2024-01-25T06:18:55;10.00;;;7.83;;
15643;SDS011;7921;43.586;1.408;2024-01-25T06:21:20;9.20;;;8.30;;
15643;SDS011;7921;43.586;1.408;2024-01-25T06:23:45;8.20;;;7.37;;
15643;SDS011;7921;43.586;1.408;2024-01-25T06:26:11;8.63;;;7.60;;
15643;SDS011;7921;43.586;1.408;2024-01-25T06:28:36;8.80;;;7.90;;
15643;SDS011;7921;43.586;1.408;2024-01-25T06:31:02;7.97;;;7.17;;
15643;SDS011;7921;43.586;1.408;2024-01-25T06:33:27;8.83;;;6.83;;
15643;SDS011;7921;43.586;1.408;2024-01-25T06:35:53;7.60;;;6.87;;
15643;SDS011;7921;43.586;1.408;2024-01-25T06:38:19;8.67;;;7.77;;
15643;SDS011;7921;43.586;1.408;2024-01-25T06:40:45;7.87;;;7.17;;
15643;SDS011;7921;43.586;1.408;2024-01-25T06:43:10;8.03;;;6.53;;
15643;SDS011;7921;43.586;1.408;2024-01-25T06:45:36;7.90;;;7.10;;
15643;SDS011;7921;43.586;1.408;2024-01-25T06:48:05;7.30;;;6.63;;
15643;SDS011;7921;43.586;1.408;2024-01-25T06:50:32;7.77;;;7.00;;
15643;SDS011;7921;43.586;1.408;2024-01-25T06:52:58;7.57;;;6.87;;
15643;SDS011;7921;43.586;1.408;2024-01-25T06:55:24;8.90;;;7.33;;
15643;SDS011;7921;43.586;1.408;2024-01-25T06:57:49;7.23;;;6.63;;
15643;SDS011;7921;43.586;1.408;2024-01-25T07:00:14;6.50;;;5.90;;
15643;SDS011;7921;43.586;1.408;2024-01-25T07:02:41;6.53;;;5.93;;
15643;SDS011;7921;43.586;1.408;2024-01-25T07:05:07;6.20;;;5.60;;
15643;SDS011;7921;43.586;1.408;2024-01-25T07:07:33;6.97;;;6.03;;
15643;SDS011;7921;43.586;1.408;2024-01-25T07:09:58;7.80;;;7.00;;
15643;SDS011;7921;43.586;1.408;2024-01-25T07:12:24;6.53;;;5.13;;
15643;SDS011;7921;43.586;1.408;2024-01-25T07:14:49;6.33;;;5.80;;
15643;SDS011;7921;43.586;1.408;2024-01-25T07:17:14;5.00;;;4.60;;
15643;SDS011;7921;43.586;1.408;2024-01-25T07:19:40;6.13;;;4.80;;
15643;SDS011;7921;43.586;1.408;2024-01-25T07:22:05;7.63;;;5.00;;
15643;SDS011;7921;43.586;1.408;2024-01-25T07:24:31;5.93;;;5.33;;
15643;SDS011;7921;43.586;1.408;2024-01-25T07:26:56;5.80;;;5.30;;
15643;SDS011;7921;43.586;1.408;2024-01-25T07:29:22;5.47;;;4.97;;
15643;SDS011;7921;43.586;1.408;2024-01-25T07:31:48;7.93;;;5.13;;
15643;SDS011;7921;43.586;1.408;2024-01-25T07:34:13;5.33;;;4.83;;
15643;SDS011;7921;43.586;1.408;2024-01-25T07:36:38;5.67;;;5.17;;
15643;SDS011;7921;43.586;1.408;2024-01-25T07:39:04;7.97;;;6.93;;
15643;SDS011;7921;43.586;1.408;2024-01-25T07:41:30;7.20;;;6.50;;
15643;SDS011;7921;43.586;1.408;2024-01-25T07:43:55;5.83;;;5.30;;
15643;SDS011;7921;43.586;1.408;2024-01-25T07:46:21;5.53;;;4.73;;
15643;SDS011;7921;43.586;1.408;2024-01-25T07:48:48;6.87;;;4.90;;
15643;SDS011;7921;43.586;1.408;2024-01-25T07:51:15;6.33;;;4.93;;
15643;SDS011;7921;43.586;1.408;2024-01-25T07:53:40;5.90;;;5.17;;
15643;SDS011;7921;43.586;1.408;2024-01-25T07:56:07;10.27;;;5.37;;
15643;SDS011;7921;43.586;1.408;2024-01-25T07:58:34;5.60;;;4.97;;
15643;SDS011;7921;43.586;1.408;2024-01-25T08:01:01;5.57;;;5.10;;
15643;SDS011;7921;43.586;1.408;2024-01-25T08:03:29;5.63;;;5.13;;
15643;SDS011;7921;43.586;1.408;2024-01-25T08:05:54;6.13;;;5.63;;
15643;SDS011;7921;43.586;1.408;2024-01-25T08:08:19;5.77;;;5.27;;
15643;SDS011;7921;43.586;1.408;2024-01-25T08:10:45;6.87;;;6.17;;
15643;SDS011;7921;43.586;1.408;2024-01-25T08:13:10;7.17;;;5.70;;
15643;SDS011;7921;43.586;1.408;2024-01-25T08:15:36;7.30;;;6.23;;
15643;SDS011;7921;43.586;1.408;2024-01-25T08:18:02;7.10;;;5.80;;
15643;SDS011;7921;43.586;1.408;2024-01-25T08:20:27;8.83;;;7.03;;
15643;SDS011;7921;43.586;1.408;2024-01-25T08:22:53;8.10;;;7.30;;
15643;SDS011;7921;43.586;1.408;2024-01-25T08:25:18;7.13;;;6.43;;
15643;SDS011;7921;43.586;1.408;2024-01-25T08:27:45;7.03;;;6.43;;
15643;SDS011;7921;43.586;1.408;2024-01-25T08:30:10;6.87;;;6.27;;
15643;SDS011;7921;43.586;1.408;2024-01-25T08:32:36;8.03;;;6.67;;
15643;SDS011;7921;43.586;1.408;2024-01-25T08:35:02;11.57;;;6.70;;
15643;SDS011;7921;43.586;1.408;2024-01-25T08:37:27;9.33;;;7.50;;
15643;SDS011;7921;43.586;1.408;2024-01-25T08:39:52;8.57;;;6.53;;
15643;SDS011;7921;43.586;1.408;2024-01-25T08:42:18;8.07;;;7.27;;
15643;SDS011;7921;43.586;1.408;2024-01-25T08:44:43;10.40;;;8.10;;
15643;SDS011;7921;43.586;1.408;2024-01-25T08:47:14;8.23;;;6.90;;
15643;SDS011;7921;43.586;1.408;2024-01-25T08:49:40;9.50;;;6.73;;
15643;SDS011;7921;43.586;1.408;2024-01-25T08:52:06;8.77;;;7.13;;
15643;SDS011;7921;43.586;1.408;2024-01-25T08:54:31;10.20;;;7.63;;
15643;SDS011;7921;43.586;1.408;2024-01-25T08:56:57;8.87;;;7.80;;
15643;SDS011;7921;43.586;1.408;2024-01-25T08:59:22;8.00;;;7.30;;
15643;SDS011;7921;43.586;1.408;2024-01-25T09:01:48;7.87;;;7.07;;
15643;SDS011;7921;43.586;1.408;2024-01-25T09:04:13;8.13;;;7.33;;
15643;SDS011;7921;43.586;1.408;2024-01-25T09:06:39;9.73;;;7.60;;
15643;SDS011;7921;43.586;1.408;2024-01-25T09:09:04;14.23;;;7.10;;
15643;SDS011;7921;43.586;1.408;2024-01-25T09:11:30;8.97;;;7.07;;
15643;SDS011;7921;43.586;1.408;2024-01-25T09:13:56;14.07;;;6.73;;
15643;SDS011;7921;43.586;1.408;2024-01-25T09:16:21;8.23;;;6.47;;
15643;SDS011;7921;43.586;1.408;2024-01-25T09:18:47;12.73;;;6.53;;
15643;SDS011;7921;43.586;1.408;2024-01-25T09:21:13;13.70;;;6.97;;
15643;SDS011;7921;43.586;1.408;2024-01-25T09:23:39;12.93;;;6.90;;
15643;SDS011;7921;43.586;1.408;2024-01-25T09:26:04;14.60;;;6.23;;
15643;SDS011;7921;43.586;1.408;2024-01-25T09:28:30;11.60;;;6.53;;
15643;SDS011;7921;43.586;1.408;2024-01-25T09:30:55;13.70;;;6.77;;
15643;SDS011;7921;43.586;1.408;2024-01-25T09:33:20;13.20;;;6.83;;
15643;SDS011;7921;43.586;1.408;2024-01-25T09:35:46;9.90;;;7.83;;
15643;SDS011;7921;43.586;1.408;2024-01-25T09:38:12;14.47;;;7.57;;
15643;SDS011;7921;43.586;1.408;2024-01-25T09:40:38;9.40;;;7.43;;
15643;SDS011;7921;43.586;1.408;2024-01-25T09:43:04;15.93;;;7.63;;
15643;SDS011;7921;43.586;1.408;2024-01-25T09:45:29;8.20;;;7.40;;
15643;SDS011;7921;43.586;1.408;2024-01-25T09:47:56;8.10;;;7.30;;
15643;SDS011;7921;43.586;1.408;2024-01-25T09:50:21;14.07;;;7.03;;
15643;SDS011;7921;43.586;1.408;2024-01-25T09:52:49;8.80;;;7.90;;
15643;SDS011;7921;43.586;1.408;2024-01-25T09:55:20;10.20;;;7.70;;
15643;SDS011;7921;43.586;1.408;2024-01-25T09:57:47;8.97;;;7.93;;
15643;SDS011;7921;43.586;1.408;2024-01-25T10:00:14;10.90;;;8.37;;
15643;SDS011;7921;43.586;1.408;2024-01-25T10:02:40;9.97;;;7.60;;
15643;SDS011;7921;43.586;1.408;2024-01-25T10:05:06;10.30;;;7.73;;
15643;SDS011;7921;43.586;1.408;2024-01-25T10:07:38;9.60;;;8.07;;
15643;SDS011;7921;43.586;1.408;2024-01-25T10:10:07;10.63;;;8.00;;
15643;SDS011;7921;43.586;1.408;2024-01-25T10:12:33;11.70;;;8.17;;
15643;SDS011;7921;43.586;1.408;2024-01-25T10:14:59;9.57;;;7.73;;
15643;SDS011;7921;43.586;1.408;2024-01-25T10:17:24;15.60;;;7.90;;
15643;SDS011;7921;43.586;1.408;2024-01-25T10:19:50;9.30;;;7.87;;
15643;SDS011;7921;43.586;1.408;2024-01-25T10:22:15;8.63;;;7.80;;
15643;SDS011;7921;43.586;1.408;2024-01-25T10:24:41;8.30;;;7.50;;
15643;SDS011;7921;43.586;1.408;2024-01-25T10:27:09;8.60;;;7.33;;
15643;SDS011;7921;43.586;1.408;2024-01-25T10:29:35;9.70;;;8.63;;
15643;SDS011;7921;43.586;1.408;2024-01-25T10:32:01;10.30;;;9.17;;
15643;SDS011;7921;43.586;1.408;2024-01-25T10:34:27;11.50;;;9.55;;
15643;SDS011;7921;43.586;1.408;2024-01-25T10:36:54;10.67;;;8.63;;
15643;SDS011;7921;43.586;1.408;2024-01-25T10:39:20;9.83;;;7.87;;
15643;SDS011;7921;43.586;1.408;2024-01-25T10:41:46;8.63;;;7.83;;
15643;SDS011;7921;43.586;1.408;2024-01-25T10:44:15;9.40;;;7.80;;
15643;SDS011;7921;43.586;1.408;2024-01-25T10:46:47;8.37;;;7.47;;
15643;SDS011;7921;43.586;1.408;2024-01-25T10:49:13;7.73;;;7.00;;
15643;SDS011;7921;43.586;1.408;2024-01-25T10:51:39;8.60;;;7.80;;
15643;SDS011;7921;43.586;1.408;2024-01-25T10:54:05;8.00;;;7.20;;
15643;SDS011;7921;43.586;1.408;2024-01-25T10:56:32;8.50;;;7.60;;
15643;SDS011;7921;43.586;1.408;2024-01-25T10:58:58;8.87;;;7.63;;
15643;SDS011;7921;43.586;1.408;2024-01-25T11:01:24;8.83;;;8.03;;
15643;SDS011;7921;43.586;1.408;2024-01-25T11:03:49;8.20;;;7.40;;
15643;SDS011;7921;43.586;1.408;2024-01-25T11:06:15;7.60;;;6.90;;
15643;SDS011;7921;43.586;1.408;2024-01-25T11:08:42;8.50;;;7.43;;
15643;SDS011;7921;43.586;1.408;2024-01-25T11:11:10;9.17;;;8.33;;
15643;SDS011;7921;43.586;1.408;2024-01-25T11:13:40;9.17;;;8.20;;
15643;SDS011;7921;43.586;1.408;2024-01-25T11:16:16;8.00;;;7.30;;
15643;SDS011;7921;43.586;1.408;2024-01-25T11:18:49;7.83;;;7.10;;
15643;SDS011;7921;43.586;1.408;2024-01-25T11:21:22;9.70;;;7.93;;
15643;SDS011;7921;43.586;1.408;2024-01-25T11:24:26;8.90;;;8.00;;
15643;SDS011;7921;43.586;1.408;2024-01-25T11:26:53;8.93;;;8.13;;
15643;SDS011;7921;43.586;1.408;2024-01-25T11:29:20;8.23;;;7.43;;
15643;SDS011;7921;43.586;1.408;2024-01-25T11:31:47;9.37;;;8.53;;
15643;SDS011;7921;43.586;1.408;2024-01-25T11:34:14;9.53;;;7.93;;
15643;SDS011;7921;43.586;1.408;2024-01-25T11:36:40;8.50;;;7.73;;
15643;SDS011;7921;43.586;1.408;2024-01-25T11:39:06;8.40;;;7.50;;
15643;SDS011;7921;43.586;1.408;2024-01-25T11:41:34;7.93;;;7.23;;
15643;SDS011;7921;43.586;1.408;2024-01-25T11:44:01;8.53;;;7.73;;
15643;SDS011;7921;43.586;1.408;2024-01-25T11:46:27;9.37;;;8.43;;
15643;SDS011;7921;43.586;1.408;2024-01-25T11:48:53;8.60;;;7.73;;
15643;SDS011;7921;43.586;1.408;2024-01-25T11:51:18;9.43;;;8.53;;
15643;SDS011;7921;43.586;1.408;2024-01-25T11:53:43;8.87;;;8.07;;
15643;SDS011;7921;43.586;1.408;2024-01-25T11:56:10;9.87;;;8.97;;
15643;SDS011;7921;43.586;1.408;2024-01-25T11:58:37;9.53;;;8.67;;
15643;SDS011;7921;43.586;1.408;2024-01-25T12:01:04;9.50;;;8.60;;
15643;SDS011;7921;43.586;1.408;2024-01-25T12:03:33;9.47;;;8.57;;
15643;SDS011;7921;43.586;1.408;2024-01-25T12:05:59;9.97;;;9.00;;
15643;SDS011;7921;43.586;1.408;2024-01-25T12:08:25;9.40;;;8.57;;
15643;SDS011;7921;43.586;1.408;2024-01-25T12:10:51;10.57;;;9.47;;
15643;SDS011;7921;43.586;1.408;2024-01-25T12:13:28;11.00;;;9.90;;
15643;SDS011;7921;43.586;1.408;2024-01-25T12:15:53;10.13;;;8.97;;
15643;SDS011;7921;43.586;1.408;2024-01-25T12:18:20;10.70;;;9.70;;
15643;SDS011;7921;43.586;1.408;2024-01-25T12:20:46;9.73;;;8.83;;
15643;SDS011;7921;43.586;1.408;2024-01-25T12:23:11;10.23;;;9.23;;
15643;SDS011;7921;43.586;1.408;2024-01-25T12:25:39;10.20;;;9.23;;
15643;SDS011;7921;43.586;1.408;2024-01-25T12:28:05;10.43;;;9.43;;
15643;SDS011;7921;43.586;1.408;2024-01-25T12:30:31;9.50;;;8.60;;
15643;SDS011;7921;43.586;1.408;2024-01-25T12:32:56;9.80;;;8.90;;
15643;SDS011;7921;43.586;1.408;2024-01-25T12:35:21;10.10;;;9.10;;
15643;SDS011;7921;43.586;1.408;2024-01-25T12:37:47;10.57;;;9.37;;
15643;SDS011;7921;43.586;1.408;2024-01-25T12:40:13;10.70;;;9.60;;
15643;SDS011;7921;43.586;1.408;2024-01-25T12:42:38;10.03;;;9.23;;
15643;SDS011;7921;43.586;1.408;2024-01-25T12:45:04;10.77;;;9.77;;
15643;SDS011;7921;43.586;1.408;2024-01-25T12:47:29;10.83;;;9.93;;
15643;SDS011;7921;43.586;1.408;2024-01-25T12:49:55;11.27;;;10.23;;
15643;SDS011;7921;43.586;1.408;2024-01-25T12:52:20;11.03;;;9.87;;
15643;SDS011;7921;43.586;1.408;2024-01-25T12:54:46;11.33;;;10.20;;
15643;SDS011;7921;43.586;1.408;2024-01-25T12:57:11;11.27;;;10.10;;
15643;SDS011;7921;43.586;1.408;2024-01-25T12:59:37;11.47;;;10.37;;
15643;SDS011;7921;43.586;1.408;2024-01-25T13:02:03;12.57;;;11.27;;
15643;SDS011;7921;43.586;1.408;2024-01-25T13:04:29;11.67;;;10.67;;
15643;SDS011;7921;43.586;1.408;2024-01-25T13:06:55;12.30;;;11.17;;
15643;SDS011;7921;43.586;1.408;2024-01-25T13:09:21;12.13;;;10.93;;
15643;SDS011;7921;43.586;1.408;2024-01-25T13:11:50;12.40;;;11.10;;
15643;SDS011;7921;43.586;1.408;2024-01-25T13:14:17;12.80;;;11.60;;
15643;SDS011;7921;43.586;1.408;2024-01-25T13:16:43;13.47;;;12.13;;
15643;SDS011;7921;43.586;1.408;2024-01-25T13:19:08;14.17;;;12.87;;
15643;SDS011;7921;43.586;1.408;2024-01-25T13:21:34;13.77;;;12.37;;
15643;SDS011;7921;43.586;1.408;2024-01-25T13:23:59;14.13;;;12.67;;
15643;SDS011;7921;43.586;1.408;2024-01-25T13:26:25;12.30;;;11.07;;
15643;SDS011;7921;43.586;1.408;2024-01-25T13:28:51;12.60;;;10.47;;
15643;SDS011;7921;43.586;1.408;2024-01-25T13:31:16;10.60;;;9.60;;
15643;SDS011;7921;43.586;1.408;2024-01-25T13:33:41;9.87;;;9.07;;
15643;SDS011;7921;43.586;1.408;2024-01-25T13:36:07;9.07;;;8.23;;
15643;SDS011;7921;43.586;1.408;2024-01-25T13:38:34;9.10;;;8.20;;
15643;SDS011;7921;43.586;1.408;2024-01-25T13:41:00;8.27;;;7.57;;
15643;SDS011;7921;43.586;1.408;2024-01-25T13:43:25;8.70;;;7.90;;
15643;SDS011;7921;43.586;1.408;2024-01-25T13:45:50;8.00;;;7.40;;
15643;SDS011;7921;43.586;1.408;2024-01-25T13:48:16;7.87;;;7.17;;
15643;SDS011;7921;43.586;1.408;2024-01-25T13:50:43;7.87;;;7.17;;
15643;SDS011;7921;43.586;1.408;2024-01-25T13:53:08;6.93;;;6.33;;
15643;SDS011;7921;43.586;1.408;2024-01-25T13:55:33;6.80;;;5.80;;
15643;SDS011;7921;43.586;1.408;2024-01-25T13:57:59;6.67;;;6.07;;
15643;SDS011;7921;43.586;1.408;2024-01-25T14:00:24;6.00;;;5.50;;
15643;SDS011;7921;43.586;1.408;2024-01-25T14:02:50;6.40;;;5.90;;
15643;SDS011;7921;43.586;1.408;2024-01-25T14:05:15;6.67;;;6.07;;
15643;SDS011;7921;43.586;1.408;2024-01-25T14:07:40;6.87;;;6.17;;
15643;SDS011;7921;43.586;1.408;2024-01-25T14:10:07;6.60;;;6.10;;
15643;SDS011;7921;43.586;1.408;2024-01-25T14:12:33;7.13;;;6.47;;
15643;SDS011;7921;43.586;1.408;2024-01-25T14:14:58;6.93;;;6.33;;
15643;SDS011;7921;43.586;1.408;2024-01-25T14:17:23;7.00;;;6.37;;
15643;SDS011;7921;43.586;1.408;2024-01-25T14:19:49;6.17;;;5.57;;
15643;SDS011;7921;43.586;1.408;2024-01-25T14:22:14;6.50;;;5.93;;
15643;SDS011;7921;43.586;1.408;2024-01-25T14:24:40;6.13;;;5.63;;
15643;SDS011;7921;43.586;1.408;2024-01-25T14:27:05;5.17;;;4.77;;
15643;SDS011;7921;43.586;1.408;2024-01-25T14:29:30;5.73;;;5.23;;
15643;SDS011;7921;43.586;1.408;2024-01-25T14:31:58;5.30;;;4.90;;
15643;SDS011;7921;43.586;1.408;2024-01-25T14:34:24;6.47;;;5.03;;
15643;SDS011;7921;43.586;1.408;2024-01-25T14:36:49;6.30;;;5.03;;
15643;SDS011;7921;43.586;1.408;2024-01-25T14:39:17;5.30;;;4.87;;
15643;SDS011;7921;43.586;1.408;2024-01-25T14:41:43;4.60;;;4.20;;
15643;SDS011;7921;43.586;1.408;2024-01-25T14:44:09;4.70;;;4.30;;
15643;SDS011;7921;43.586;1.408;2024-01-25T14:46:34;4.70;;;4.20;;
15643;SDS011;7921;43.586;1.408;2024-01-25T14:49:00;4.10;;;3.70;;